<?xml version="1.0" encoding="UTF-8" standalone="no" ?>
<gpx xmlns="http://www.topografix.com/GPX/1/1" xmlns:xsi="http://www.w3.org/2001/XMLSchema-instance" xsi:schemaLocation="http://www.topografix.com/GPX/1/1 http://www.topografix.com/GPX/1/1/gpx.xsd" version="1.1" creator="VisuGPX - https://www.visugpx.com">
  <metadata>
    <name>Chemere_IlesEnchanteesChenes_8-24km</name>
    <desc><![CDATA[gnerando idor: 8320456_12674239_13308104]]></desc>
  </metadata>
  <trk>
    <name><![CDATA[Chaumesretz_Chenes_21.5km-13308104]]></name>
    <extensions>
      <line xmlns="http://www.topografix.com/GPX/gpx_style/0/2">
        <color>FF0000</color>
        <width>4</width>
      </line>
    </extensions>
    <trkseg>
      <trkpt lat="47.1244" lon="-1.91433">
        <ele>6</ele>
        <time>2023-11-01T12:58:24Z</time>
      </trkpt>
      <trkpt lat="47.12448" lon="-1.91428">
        <ele>6</ele>
        <time>2023-11-01T12:58:36Z</time>
      </trkpt>
      <trkpt lat="47.12471" lon="-1.91417">
        <ele>7</ele>
        <time>2023-11-01T12:59:08Z</time>
      </trkpt>
      <trkpt lat="47.12482" lon="-1.91414">
        <ele>7</ele>
        <time>2023-11-01T12:59:23Z</time>
      </trkpt>
      <trkpt lat="47.1249" lon="-1.91406">
        <ele>7</ele>
        <time>2023-11-01T12:59:36Z</time>
      </trkpt>
      <trkpt lat="47.12502" lon="-1.91396">
        <ele>7</ele>
        <time>2023-11-01T12:59:54Z</time>
      </trkpt>
      <trkpt lat="47.12511" lon="-1.91384">
        <ele>7</ele>
        <time>2023-11-01T13:00:10Z</time>
      </trkpt>
      <trkpt lat="47.12529" lon="-1.91361">
        <ele>7</ele>
        <time>2023-11-01T13:00:42Z</time>
      </trkpt>
      <trkpt lat="47.12552" lon="-1.914">
        <ele>7</ele>
        <time>2023-11-01T13:01:29Z</time>
      </trkpt>
      <trkpt lat="47.12565" lon="-1.91422">
        <ele>7</ele>
        <time>2023-11-01T13:01:55Z</time>
      </trkpt>
      <trkpt lat="47.12564" lon="-1.9143">
        <ele>7</ele>
        <time>2023-11-01T13:02:03Z</time>
      </trkpt>
      <trkpt lat="47.12567" lon="-1.91443">
        <ele>7</ele>
        <time>2023-11-01T13:02:15Z</time>
      </trkpt>
      <trkpt lat="47.12559" lon="-1.91457">
        <ele>7</ele>
        <time>2023-11-01T13:02:32Z</time>
      </trkpt>
      <trkpt lat="47.1255" lon="-1.91491">
        <ele>7</ele>
        <time>2023-11-01T13:03:05Z</time>
      </trkpt>
      <trkpt lat="47.12549" lon="-1.91511">
        <ele>8</ele>
        <time>2023-11-01T13:03:23Z</time>
      </trkpt>
      <trkpt lat="47.12555" lon="-1.91561">
        <ele>8</ele>
        <time>2023-11-01T13:04:09Z</time>
      </trkpt>
      <trkpt lat="47.12557" lon="-1.9158">
        <ele>8</ele>
        <time>2023-11-01T13:04:27Z</time>
      </trkpt>
      <trkpt lat="47.1256" lon="-1.91598">
        <ele>8</ele>
        <time>2023-11-01T13:04:44Z</time>
      </trkpt>
      <trkpt lat="47.12574" lon="-1.9163">
        <ele>8</ele>
        <time>2023-11-01T13:05:18Z</time>
      </trkpt>
      <trkpt lat="47.12577" lon="-1.91647">
        <ele>7</ele>
        <time>2023-11-01T13:05:34Z</time>
      </trkpt>
      <trkpt lat="47.12577" lon="-1.91662">
        <ele>7</ele>
        <time>2023-11-01T13:05:48Z</time>
      </trkpt>
      <trkpt lat="47.12576" lon="-1.91689">
        <ele>8</ele>
        <time>2023-11-01T13:06:12Z</time>
      </trkpt>
      <trkpt lat="47.12573" lon="-1.91718">
        <ele>8</ele>
        <time>2023-11-01T13:06:39Z</time>
      </trkpt>
      <trkpt lat="47.12578" lon="-1.91768">
        <ele>8</ele>
        <time>2023-11-01T13:07:25Z</time>
      </trkpt>
      <trkpt lat="47.12578" lon="-1.91788">
        <ele>9</ele>
        <time>2023-11-01T13:07:43Z</time>
      </trkpt>
      <trkpt lat="47.12555" lon="-1.91844">
        <ele>9</ele>
        <time>2023-11-01T13:08:42Z</time>
      </trkpt>
      <trkpt lat="47.12542" lon="-1.91865">
        <ele>9</ele>
        <time>2023-11-01T13:09:08Z</time>
      </trkpt>
      <trkpt lat="47.12532" lon="-1.91864">
        <ele>10</ele>
        <time>2023-11-01T13:09:22Z</time>
      </trkpt>
      <trkpt lat="47.12521" lon="-1.91851">
        <ele>10</ele>
        <time>2023-11-01T13:09:40Z</time>
      </trkpt>
      <trkpt lat="47.12509" lon="-1.91849">
        <ele>10</ele>
        <time>2023-11-01T13:09:56Z</time>
      </trkpt>
      <trkpt lat="47.12499" lon="-1.91857">
        <ele>10</ele>
        <time>2023-11-01T13:10:12Z</time>
      </trkpt>
      <trkpt lat="47.12659" lon="-1.91964">
        <ele>12</ele>
        <time>2023-11-01T13:14:06Z</time>
      </trkpt>
      <trkpt lat="47.12708" lon="-1.92097">
        <ele>11</ele>
        <time>2023-11-01T13:16:24Z</time>
      </trkpt>
      <trkpt lat="47.12767" lon="-1.91964">
        <ele>11</ele>
        <time>2023-11-01T13:18:48Z</time>
      </trkpt>
      <trkpt lat="47.12929" lon="-1.9192">
        <ele>12</ele>
        <time>2023-11-01T13:22:28Z</time>
      </trkpt>
      <trkpt lat="47.12986" lon="-1.92085">
        <ele>13</ele>
        <time>2023-11-01T13:25:16Z</time>
      </trkpt>
      <trkpt lat="47.13055" lon="-1.92058">
        <ele>13</ele>
        <time>2023-11-01T13:26:51Z</time>
      </trkpt>
      <trkpt lat="47.13147" lon="-1.92211">
        <ele>13</ele>
        <time>2023-11-01T13:29:56Z</time>
      </trkpt>
      <trkpt lat="47.13091" lon="-1.92334">
        <ele>11</ele>
        <time>2023-11-01T13:32:11Z</time>
      </trkpt>
      <trkpt lat="47.13232" lon="-1.92456">
        <ele>13</ele>
        <time>2023-11-01T13:35:49Z</time>
      </trkpt>
      <trkpt lat="47.13376" lon="-1.92492">
        <ele>13</ele>
        <time>2023-11-01T13:39:04Z</time>
      </trkpt>
      <trkpt lat="47.13413" lon="-1.92559">
        <ele>11</ele>
        <time>2023-11-01T13:40:22Z</time>
      </trkpt>
      <trkpt lat="47.13209" lon="-1.92707">
        <ele>11</ele>
        <time>2023-11-01T13:45:26Z</time>
      </trkpt>
      <trkpt lat="47.13104" lon="-1.92884">
        <ele>10</ele>
        <time>2023-11-01T13:48:59Z</time>
      </trkpt>
      <trkpt lat="47.13136" lon="-1.93007">
        <ele>11</ele>
        <time>2023-11-01T13:50:59Z</time>
      </trkpt>
      <trkpt lat="47.12804" lon="-1.93133">
        <ele>11</ele>
        <time>2023-11-01T13:58:36Z</time>
      </trkpt>
      <trkpt lat="47.12419" lon="-1.9344">
        <ele>13</ele>
        <time>2023-11-01T14:08:21Z</time>
      </trkpt>
      <trkpt lat="47.12218" lon="-1.93991">
        <ele>11</ele>
        <time>2023-11-01T14:17:48Z</time>
      </trkpt>
      <trkpt lat="47.12308" lon="-1.94032">
        <ele>10</ele>
        <time>2023-11-01T14:19:54Z</time>
      </trkpt>
      <trkpt lat="47.12027" lon="-1.94011">
        <ele>11</ele>
        <time>2023-11-01T14:26:10Z</time>
      </trkpt>
      <trkpt lat="47.12117" lon="-1.93899">
        <ele>13</ele>
        <time>2023-11-01T14:28:47Z</time>
      </trkpt>
      <trkpt lat="47.11975" lon="-1.93491">
        <ele>16</ele>
        <time>2023-11-01T14:35:43Z</time>
      </trkpt>
      <trkpt lat="47.11864" lon="-1.9321">
        <ele>13</ele>
        <time>2023-11-01T14:40:38Z</time>
      </trkpt>
      <trkpt lat="47.12263" lon="-1.92909">
        <ele>8</ele>
        <time>2023-11-01T14:50:37Z</time>
      </trkpt>
      <trkpt lat="47.12249" lon="-1.92766">
        <ele>7</ele>
        <time>2023-11-01T14:52:48Z</time>
      </trkpt>
      <trkpt lat="47.12335" lon="-1.92709">
        <ele>8</ele>
        <time>2023-11-01T14:54:54Z</time>
      </trkpt>
      <trkpt lat="47.12327" lon="-1.9267">
        <ele>8</ele>
        <time>2023-11-01T14:55:31Z</time>
      </trkpt>
      <trkpt lat="47.12301" lon="-1.92593">
        <ele>7</ele>
        <time>2023-11-01T14:56:49Z</time>
      </trkpt>
      <trkpt lat="47.12282" lon="-1.92553">
        <ele>8</ele>
        <time>2023-11-01T14:57:33Z</time>
      </trkpt>
      <trkpt lat="47.12265" lon="-1.92533">
        <ele>8</ele>
        <time>2023-11-01T14:58:02Z</time>
      </trkpt>
      <trkpt lat="47.12247" lon="-1.9253">
        <ele>8</ele>
        <time>2023-11-01T14:58:26Z</time>
      </trkpt>
      <trkpt lat="47.12237" lon="-1.92516">
        <ele>8</ele>
        <time>2023-11-01T14:58:45Z</time>
      </trkpt>
      <trkpt lat="47.12214" lon="-1.92456">
        <ele>8</ele>
        <time>2023-11-01T14:59:47Z</time>
      </trkpt>
      <trkpt lat="47.12205" lon="-1.92419">
        <ele>9</ele>
        <time>2023-11-01T15:00:23Z</time>
      </trkpt>
      <trkpt lat="47.12194" lon="-1.9238">
        <ele>9</ele>
        <time>2023-11-01T15:01:01Z</time>
      </trkpt>
      <trkpt lat="47.12191" lon="-1.92358">
        <ele>9</ele>
        <time>2023-11-01T15:01:22Z</time>
      </trkpt>
      <trkpt lat="47.12201" lon="-1.92329">
        <ele>9</ele>
        <time>2023-11-01T15:01:51Z</time>
      </trkpt>
      <trkpt lat="47.12207" lon="-1.92303">
        <ele>9</ele>
        <time>2023-11-01T15:02:16Z</time>
      </trkpt>
      <trkpt lat="47.122" lon="-1.92287">
        <ele>9</ele>
        <time>2023-11-01T15:02:33Z</time>
      </trkpt>
      <trkpt lat="47.12191" lon="-1.92271">
        <ele>9</ele>
        <time>2023-11-01T15:02:52Z</time>
      </trkpt>
      <trkpt lat="47.12186" lon="-1.92244">
        <ele>9</ele>
        <time>2023-11-01T15:03:18Z</time>
      </trkpt>
      <trkpt lat="47.12182" lon="-1.92211">
        <ele>9</ele>
        <time>2023-11-01T15:03:48Z</time>
      </trkpt>
      <trkpt lat="47.12151" lon="-1.92169">
        <ele>9</ele>
        <time>2023-11-01T15:04:44Z</time>
      </trkpt>
      <trkpt lat="47.12141" lon="-1.92139">
        <ele>10</ele>
        <time>2023-11-01T15:05:15Z</time>
      </trkpt>
      <trkpt lat="47.12102" lon="-1.92159">
        <ele>10</ele>
        <time>2023-11-01T15:06:10Z</time>
      </trkpt>
      <trkpt lat="47.12081" lon="-1.9216">
        <ele>10</ele>
        <time>2023-11-01T15:06:38Z</time>
      </trkpt>
      <trkpt lat="47.12055" lon="-1.92165">
        <ele>10</ele>
        <time>2023-11-01T15:07:13Z</time>
      </trkpt>
      <trkpt lat="47.12025" lon="-1.9217">
        <ele>11</ele>
        <time>2023-11-01T15:07:53Z</time>
      </trkpt>
      <trkpt lat="47.11998" lon="-1.92175">
        <ele>11</ele>
        <time>2023-11-01T15:08:29Z</time>
      </trkpt>
      <trkpt lat="47.11979" lon="-1.9219">
        <ele>12</ele>
        <time>2023-11-01T15:08:58Z</time>
      </trkpt>
      <trkpt lat="47.1195" lon="-1.92228">
        <ele>12</ele>
        <time>2023-11-01T15:09:50Z</time>
      </trkpt>
      <trkpt lat="47.11906" lon="-1.92274">
        <ele>13</ele>
        <time>2023-11-01T15:11:02Z</time>
      </trkpt>
      <trkpt lat="47.11868" lon="-1.92304">
        <ele>12</ele>
        <time>2023-11-01T15:12:00Z</time>
      </trkpt>
      <trkpt lat="47.1184" lon="-1.9232">
        <ele>12</ele>
        <time>2023-11-01T15:12:40Z</time>
      </trkpt>
      <trkpt lat="47.11806" lon="-1.92332">
        <ele>12</ele>
        <time>2023-11-01T15:13:26Z</time>
      </trkpt>
      <trkpt lat="47.11772" lon="-1.92345">
        <ele>12</ele>
        <time>2023-11-01T15:14:13Z</time>
      </trkpt>
      <trkpt lat="47.1175" lon="-1.92361">
        <ele>12</ele>
        <time>2023-11-01T15:14:46Z</time>
      </trkpt>
      <trkpt lat="47.11736" lon="-1.92375">
        <ele>12</ele>
        <time>2023-11-01T15:15:09Z</time>
      </trkpt>
      <trkpt lat="47.11706" lon="-1.92409">
        <ele>12</ele>
        <time>2023-11-01T15:15:59Z</time>
      </trkpt>
      <trkpt lat="47.11691" lon="-1.92439">
        <ele>12</ele>
        <time>2023-11-01T15:16:33Z</time>
      </trkpt>
      <trkpt lat="47.11674" lon="-1.92486">
        <ele>13</ele>
        <time>2023-11-01T15:17:21Z</time>
      </trkpt>
      <trkpt lat="47.11656" lon="-1.92522">
        <ele>14</ele>
        <time>2023-11-01T15:18:02Z</time>
      </trkpt>
      <trkpt lat="47.11632" lon="-1.92559">
        <ele>15</ele>
        <time>2023-11-01T15:18:48Z</time>
      </trkpt>
      <trkpt lat="47.11622" lon="-1.92587">
        <ele>15</ele>
        <time>2023-11-01T15:19:17Z</time>
      </trkpt>
      <trkpt lat="47.1162" lon="-1.92615">
        <ele>15</ele>
        <time>2023-11-01T15:19:43Z</time>
      </trkpt>
      <trkpt lat="47.11594" lon="-1.92654">
        <ele>15</ele>
        <time>2023-11-01T15:20:32Z</time>
      </trkpt>
      <trkpt lat="47.11575" lon="-1.92679">
        <ele>15</ele>
        <time>2023-11-01T15:21:06Z</time>
      </trkpt>
      <trkpt lat="47.11554" lon="-1.92718">
        <ele>16</ele>
        <time>2023-11-01T15:21:51Z</time>
      </trkpt>
      <trkpt lat="47.11527" lon="-1.92775">
        <ele>16</ele>
        <time>2023-11-01T15:22:54Z</time>
      </trkpt>
      <trkpt lat="47.11491" lon="-1.9284">
        <ele>16</ele>
        <time>2023-11-01T15:24:11Z</time>
      </trkpt>
      <trkpt lat="47.11482" lon="-1.9289">
        <ele>16</ele>
        <time>2023-11-01T15:24:57Z</time>
      </trkpt>
      <trkpt lat="47.11471" lon="-1.92918">
        <ele>16</ele>
        <time>2023-11-01T15:25:27Z</time>
      </trkpt>
      <trkpt lat="47.11451" lon="-1.92957">
        <ele>15</ele>
        <time>2023-11-01T15:26:11Z</time>
      </trkpt>
      <trkpt lat="47.11443" lon="-1.92979">
        <ele>15</ele>
        <time>2023-11-01T15:26:34Z</time>
      </trkpt>
      <trkpt lat="47.11436" lon="-1.93014">
        <ele>15</ele>
        <time>2023-11-01T15:27:07Z</time>
      </trkpt>
      <trkpt lat="47.11426" lon="-1.93042">
        <ele>15</ele>
        <time>2023-11-01T15:27:36Z</time>
      </trkpt>
      <trkpt lat="47.11403" lon="-1.93081">
        <ele>15</ele>
        <time>2023-11-01T15:28:23Z</time>
      </trkpt>
      <trkpt lat="47.11381" lon="-1.93149">
        <ele>14</ele>
        <time>2023-11-01T15:29:31Z</time>
      </trkpt>
      <trkpt lat="47.11369" lon="-1.93162">
        <ele>14</ele>
        <time>2023-11-01T15:29:51Z</time>
      </trkpt>
      <trkpt lat="47.1135" lon="-1.93132">
        <ele>15</ele>
        <time>2023-11-01T15:30:28Z</time>
      </trkpt>
      <trkpt lat="47.11318" lon="-1.93096">
        <ele>16</ele>
        <time>2023-11-01T15:31:22Z</time>
      </trkpt>
      <trkpt lat="47.11288" lon="-1.93044">
        <ele>16</ele>
        <time>2023-11-01T15:32:24Z</time>
      </trkpt>
      <trkpt lat="47.11267" lon="-1.93005">
        <ele>17</ele>
        <time>2023-11-01T15:33:09Z</time>
      </trkpt>
      <trkpt lat="47.11252" lon="-1.9296">
        <ele>17</ele>
        <time>2023-11-01T15:33:54Z</time>
      </trkpt>
      <trkpt lat="47.1124" lon="-1.92918">
        <ele>17</ele>
        <time>2023-11-01T15:34:36Z</time>
      </trkpt>
      <trkpt lat="47.11236" lon="-1.92884">
        <ele>17</ele>
        <time>2023-11-01T15:35:07Z</time>
      </trkpt>
      <trkpt lat="47.11221" lon="-1.92815">
        <ele>18</ele>
        <time>2023-11-01T15:36:13Z</time>
      </trkpt>
      <trkpt lat="47.112" lon="-1.92774">
        <ele>18</ele>
        <time>2023-11-01T15:37:00Z</time>
      </trkpt>
      <trkpt lat="47.11175" lon="-1.92726">
        <ele>19</ele>
        <time>2023-11-01T15:37:54Z</time>
      </trkpt>
      <trkpt lat="47.1115" lon="-1.92693">
        <ele>19</ele>
        <time>2023-11-01T15:38:39Z</time>
      </trkpt>
      <trkpt lat="47.11119" lon="-1.92657">
        <ele>18</ele>
        <time>2023-11-01T15:39:32Z</time>
      </trkpt>
      <trkpt lat="47.11092" lon="-1.92626">
        <ele>18</ele>
        <time>2023-11-01T15:40:18Z</time>
      </trkpt>
      <trkpt lat="47.11075" lon="-1.92594">
        <ele>18</ele>
        <time>2023-11-01T15:40:55Z</time>
      </trkpt>
      <trkpt lat="47.11055" lon="-1.92567">
        <ele>18</ele>
        <time>2023-11-01T15:41:31Z</time>
      </trkpt>
      <trkpt lat="47.11041" lon="-1.92514">
        <ele>18</ele>
        <time>2023-11-01T15:42:22Z</time>
      </trkpt>
      <trkpt lat="47.11025" lon="-1.92455">
        <ele>18</ele>
        <time>2023-11-01T15:43:20Z</time>
      </trkpt>
      <trkpt lat="47.11012" lon="-1.92431">
        <ele>18</ele>
        <time>2023-11-01T15:43:48Z</time>
      </trkpt>
      <trkpt lat="47.10994" lon="-1.92395">
        <ele>19</ele>
        <time>2023-11-01T15:44:29Z</time>
      </trkpt>
      <trkpt lat="47.10975" lon="-1.92352">
        <ele>19</ele>
        <time>2023-11-01T15:45:15Z</time>
      </trkpt>
      <trkpt lat="47.10958" lon="-1.92309">
        <ele>19</ele>
        <time>2023-11-01T15:46:00Z</time>
      </trkpt>
      <trkpt lat="47.10939" lon="-1.92264">
        <ele>18</ele>
        <time>2023-11-01T15:46:48Z</time>
      </trkpt>
      <trkpt lat="47.10925" lon="-1.92234">
        <ele>19</ele>
        <time>2023-11-01T15:47:21Z</time>
      </trkpt>
      <trkpt lat="47.10903" lon="-1.92187">
        <ele>19</ele>
        <time>2023-11-01T15:48:13Z</time>
      </trkpt>
      <trkpt lat="47.10893" lon="-1.92167">
        <ele>19</ele>
        <time>2023-11-01T15:48:36Z</time>
      </trkpt>
      <trkpt lat="47.10879" lon="-1.92156">
        <ele>19</ele>
        <time>2023-11-01T15:48:57Z</time>
      </trkpt>
      <trkpt lat="47.10872" lon="-1.92143">
        <ele>19</ele>
        <time>2023-11-01T15:49:12Z</time>
      </trkpt>
      <trkpt lat="47.10887" lon="-1.92141">
        <ele>19</ele>
        <time>2023-11-01T15:49:32Z</time>
      </trkpt>
      <trkpt lat="47.10906" lon="-1.92138">
        <ele>18</ele>
        <time>2023-11-01T15:49:58Z</time>
      </trkpt>
      <trkpt lat="47.10938" lon="-1.92118">
        <ele>17</ele>
        <time>2023-11-01T15:50:44Z</time>
      </trkpt>
      <trkpt lat="47.10951" lon="-1.92108">
        <ele>17</ele>
        <time>2023-11-01T15:51:04Z</time>
      </trkpt>
      <trkpt lat="47.10957" lon="-1.92102">
        <ele>17</ele>
        <time>2023-11-01T15:51:13Z</time>
      </trkpt>
      <trkpt lat="47.10992" lon="-1.92078">
        <ele>17</ele>
        <time>2023-11-01T15:52:05Z</time>
      </trkpt>
      <trkpt lat="47.11041" lon="-1.92036">
        <ele>18</ele>
        <time>2023-11-01T15:53:21Z</time>
      </trkpt>
      <trkpt lat="47.11097" lon="-1.91976">
        <ele>19</ele>
        <time>2023-11-01T15:54:53Z</time>
      </trkpt>
      <trkpt lat="47.11145" lon="-1.91908">
        <ele>16</ele>
        <time>2023-11-01T15:56:22Z</time>
      </trkpt>
      <trkpt lat="47.112" lon="-1.9183">
        <ele>15</ele>
        <time>2023-11-01T15:58:04Z</time>
      </trkpt>
      <trkpt lat="47.11237" lon="-1.91783">
        <ele>14</ele>
        <time>2023-11-01T15:59:09Z</time>
      </trkpt>
      <trkpt lat="47.11263" lon="-1.91747">
        <ele>13</ele>
        <time>2023-11-01T15:59:57Z</time>
      </trkpt>
      <trkpt lat="47.11269" lon="-1.91726">
        <ele>13</ele>
        <time>2023-11-01T16:00:18Z</time>
      </trkpt>
      <trkpt lat="47.11268" lon="-1.91714">
        <ele>13</ele>
        <time>2023-11-01T16:00:29Z</time>
      </trkpt>
      <trkpt lat="47.11255" lon="-1.91715">
        <ele>13</ele>
        <time>2023-11-01T16:00:46Z</time>
      </trkpt>
      <trkpt lat="47.11247" lon="-1.91712">
        <ele>13</ele>
        <time>2023-11-01T16:00:57Z</time>
      </trkpt>
      <trkpt lat="47.1124" lon="-1.91676">
        <ele>12</ele>
        <time>2023-11-01T16:01:31Z</time>
      </trkpt>
      <trkpt lat="47.1123" lon="-1.91648">
        <ele>13</ele>
        <time>2023-11-01T16:02:00Z</time>
      </trkpt>
      <trkpt lat="47.11208" lon="-1.91581">
        <ele>13</ele>
        <time>2023-11-01T16:03:07Z</time>
      </trkpt>
      <trkpt lat="47.1119" lon="-1.91538">
        <ele>12</ele>
        <time>2023-11-01T16:03:53Z</time>
      </trkpt>
      <trkpt lat="47.11171" lon="-1.91489">
        <ele>12</ele>
        <time>2023-11-01T16:04:44Z</time>
      </trkpt>
      <trkpt lat="47.11154" lon="-1.91426">
        <ele>12</ele>
        <time>2023-11-01T16:05:46Z</time>
      </trkpt>
      <trkpt lat="47.11136" lon="-1.91369">
        <ele>13</ele>
        <time>2023-11-01T16:06:43Z</time>
      </trkpt>
      <trkpt lat="47.11119" lon="-1.91283">
        <ele>13</ele>
        <time>2023-11-01T16:08:04Z</time>
      </trkpt>
      <trkpt lat="47.11113" lon="-1.91265">
        <ele>14</ele>
        <time>2023-11-01T16:08:23Z</time>
      </trkpt>
      <trkpt lat="47.11011" lon="-1.91468">
        <ele>18</ele>
        <time>2023-11-01T16:12:12Z</time>
      </trkpt>
      <trkpt lat="47.10922" lon="-1.91738">
        <ele>19</ele>
        <time>2023-11-01T16:16:44Z</time>
      </trkpt>
      <trkpt lat="47.10712" lon="-1.91592">
        <ele>18</ele>
        <time>2023-11-01T16:21:54Z</time>
      </trkpt>
      <trkpt lat="47.10491" lon="-1.91246">
        <ele>14</ele>
        <time>2023-11-01T16:29:05Z</time>
      </trkpt>
      <trkpt lat="47.10181" lon="-1.91004">
        <ele>18</ele>
        <time>2023-11-01T16:36:54Z</time>
      </trkpt>
      <trkpt lat="47.10086" lon="-1.91141">
        <ele>20</ele>
        <time>2023-11-01T16:39:51Z</time>
      </trkpt>
      <trkpt lat="47.09909" lon="-1.91072">
        <ele>17</ele>
        <time>2023-11-01T16:43:56Z</time>
      </trkpt>
      <trkpt lat="47.09707" lon="-1.90784">
        <ele>18</ele>
        <time>2023-11-01T16:50:11Z</time>
      </trkpt>
      <trkpt lat="47.09437" lon="-1.90203">
        <ele>18</ele>
        <time>2023-11-01T17:00:50Z</time>
      </trkpt>
      <trkpt lat="47.09506" lon="-1.90102">
        <ele>17</ele>
        <time>2023-11-01T17:03:00Z</time>
      </trkpt>
      <trkpt lat="47.0943" lon="-1.89528">
        <ele>15</ele>
        <time>2023-11-01T17:11:52Z</time>
      </trkpt>
      <trkpt lat="47.09518" lon="-1.89243">
        <ele>16</ele>
        <time>2023-11-01T17:16:36Z</time>
      </trkpt>
      <trkpt lat="47.09418" lon="-1.89255">
        <ele>16</ele>
        <time>2023-11-01T17:18:50Z</time>
      </trkpt>
      <trkpt lat="47.09283" lon="-1.88643">
        <ele>19</ele>
        <time>2023-11-01T17:28:34Z</time>
      </trkpt>
      <trkpt lat="47.09179" lon="-1.88653">
        <ele>19</ele>
        <time>2023-11-01T17:30:53Z</time>
      </trkpt>
      <trkpt lat="47.0914" lon="-1.88438">
        <ele>20</ele>
        <time>2023-11-01T17:34:15Z</time>
      </trkpt>
      <trkpt lat="47.09053" lon="-1.88326">
        <ele>20</ele>
        <time>2023-11-01T17:36:50Z</time>
      </trkpt>
      <trkpt lat="47.09192" lon="-1.88265">
        <ele>19</ele>
        <time>2023-11-01T17:40:03Z</time>
      </trkpt>
      <trkpt lat="47.09245" lon="-1.88071">
        <ele>19</ele>
        <time>2023-11-01T17:43:13Z</time>
      </trkpt>
      <trkpt lat="47.09345" lon="-1.87994">
        <ele>18</ele>
        <time>2023-11-01T17:45:44Z</time>
      </trkpt>
      <trkpt lat="47.09536" lon="-1.87729">
        <ele>15</ele>
        <time>2023-11-01T17:51:35Z</time>
      </trkpt>
      <trkpt lat="47.10242" lon="-1.87035">
        <ele>15</ele>
        <time>2023-11-01T18:10:28Z</time>
      </trkpt>
      <trkpt lat="47.1023" lon="-1.87316">
        <ele>13</ele>
        <time>2023-11-01T18:14:44Z</time>
      </trkpt>
      <trkpt lat="47.10174" lon="-1.87507">
        <ele>12</ele>
        <time>2023-11-01T18:17:53Z</time>
      </trkpt>
      <trkpt lat="47.1019" lon="-1.87663">
        <ele>14</ele>
        <time>2023-11-01T18:20:16Z</time>
      </trkpt>
      <trkpt lat="47.1012" lon="-1.87744">
        <ele>13</ele>
        <time>2023-11-01T18:22:15Z</time>
      </trkpt>
      <trkpt lat="47.10113" lon="-1.87872">
        <ele>13</ele>
        <time>2023-11-01T18:24:12Z</time>
      </trkpt>
      <trkpt lat="47.09985" lon="-1.88147">
        <ele>14</ele>
        <time>2023-11-01T18:29:14Z</time>
      </trkpt>
      <trkpt lat="47.10023" lon="-1.88555">
        <ele>12</ele>
        <time>2023-11-01T18:35:28Z</time>
      </trkpt>
      <trkpt lat="47.10565" lon="-1.8861">
        <ele>10</ele>
        <time>2023-11-01T18:47:33Z</time>
      </trkpt>
      <trkpt lat="47.10755" lon="-1.8847">
        <ele>9</ele>
        <time>2023-11-01T18:52:17Z</time>
      </trkpt>
      <trkpt lat="47.10858" lon="-1.88689">
        <ele>9</ele>
        <time>2023-11-01T18:56:19Z</time>
      </trkpt>
      <trkpt lat="47.10775" lon="-1.89101">
        <ele>11</ele>
        <time>2023-11-01T19:02:49Z</time>
      </trkpt>
      <trkpt lat="47.10969" lon="-1.89599">
        <ele>14</ele>
        <time>2023-11-01T19:11:30Z</time>
      </trkpt>
      <trkpt lat="47.10965" lon="-1.8972">
        <ele>13</ele>
        <time>2023-11-01T19:13:20Z</time>
      </trkpt>
      <trkpt lat="47.11052" lon="-1.89799">
        <ele>12</ele>
        <time>2023-11-01T19:15:37Z</time>
      </trkpt>
      <trkpt lat="47.11126" lon="-1.90224">
        <ele>11</ele>
        <time>2023-11-01T19:22:15Z</time>
      </trkpt>
      <trkpt lat="47.11278" lon="-1.90497">
        <ele>12</ele>
        <time>2023-11-01T19:27:36Z</time>
      </trkpt>
      <trkpt lat="47.11294" lon="-1.90515">
        <ele>12</ele>
        <time>2023-11-01T19:28:02Z</time>
      </trkpt>
      <trkpt lat="47.11302" lon="-1.9054">
        <ele>11</ele>
        <time>2023-11-01T19:28:28Z</time>
      </trkpt>
      <trkpt lat="47.11316" lon="-1.90563">
        <ele>10</ele>
        <time>2023-11-01T19:28:56Z</time>
      </trkpt>
      <trkpt lat="47.11325" lon="-1.90588">
        <ele>9</ele>
        <time>2023-11-01T19:29:21Z</time>
      </trkpt>
      <trkpt lat="47.11333" lon="-1.90616">
        <ele>9</ele>
        <time>2023-11-01T19:29:49Z</time>
      </trkpt>
      <trkpt lat="47.11344" lon="-1.90644">
        <ele>9</ele>
        <time>2023-11-01T19:30:18Z</time>
      </trkpt>
      <trkpt lat="47.11351" lon="-1.90676">
        <ele>9</ele>
        <time>2023-11-01T19:30:49Z</time>
      </trkpt>
      <trkpt lat="47.11362" lon="-1.90707">
        <ele>8</ele>
        <time>2023-11-01T19:31:20Z</time>
      </trkpt>
      <trkpt lat="47.11369" lon="-1.90732">
        <ele>8</ele>
        <time>2023-11-01T19:31:45Z</time>
      </trkpt>
      <trkpt lat="47.1138" lon="-1.90762">
        <ele>8</ele>
        <time>2023-11-01T19:32:16Z</time>
      </trkpt>
      <trkpt lat="47.1139" lon="-1.90797">
        <ele>8</ele>
        <time>2023-11-01T19:32:50Z</time>
      </trkpt>
      <trkpt lat="47.11402" lon="-1.90819">
        <ele>9</ele>
        <time>2023-11-01T19:33:16Z</time>
      </trkpt>
      <trkpt lat="47.11431" lon="-1.90854">
        <ele>9</ele>
        <time>2023-11-01T19:34:06Z</time>
      </trkpt>
      <trkpt lat="47.11449" lon="-1.90881">
        <ele>8</ele>
        <time>2023-11-01T19:34:40Z</time>
      </trkpt>
      <trkpt lat="47.11466" lon="-1.90911">
        <ele>8</ele>
        <time>2023-11-01T19:35:16Z</time>
      </trkpt>
      <trkpt lat="47.11484" lon="-1.9093">
        <ele>8</ele>
        <time>2023-11-01T19:35:46Z</time>
      </trkpt>
      <trkpt lat="47.11498" lon="-1.90949">
        <ele>9</ele>
        <time>2023-11-01T19:36:11Z</time>
      </trkpt>
      <trkpt lat="47.11536" lon="-1.90993">
        <ele>9</ele>
        <time>2023-11-01T19:37:15Z</time>
      </trkpt>
      <trkpt lat="47.11549" lon="-1.91021">
        <ele>9</ele>
        <time>2023-11-01T19:37:46Z</time>
      </trkpt>
      <trkpt lat="47.11567" lon="-1.911">
        <ele>7</ele>
        <time>2023-11-01T19:39:02Z</time>
      </trkpt>
      <trkpt lat="47.11578" lon="-1.91135">
        <ele>6</ele>
        <time>2023-11-01T19:39:37Z</time>
      </trkpt>
      <trkpt lat="47.11592" lon="-1.91199">
        <ele>6</ele>
        <time>2023-11-01T19:40:38Z</time>
      </trkpt>
      <trkpt lat="47.11599" lon="-1.91222">
        <ele>6</ele>
        <time>2023-11-01T19:41:01Z</time>
      </trkpt>
      <trkpt lat="47.11616" lon="-1.91265">
        <ele>7</ele>
        <time>2023-11-01T19:41:46Z</time>
      </trkpt>
      <trkpt lat="47.11634" lon="-1.91309">
        <ele>9</ele>
        <time>2023-11-01T19:42:33Z</time>
      </trkpt>
      <trkpt lat="47.11633" lon="-1.91364">
        <ele>10</ele>
        <time>2023-11-01T19:43:23Z</time>
      </trkpt>
      <trkpt lat="47.1164" lon="-1.91402">
        <ele>10</ele>
        <time>2023-11-01T19:43:58Z</time>
      </trkpt>
      <trkpt lat="47.11672" lon="-1.9149">
        <ele>12</ele>
        <time>2023-11-01T19:45:29Z</time>
      </trkpt>
      <trkpt lat="47.11686" lon="-1.9153">
        <ele>12</ele>
        <time>2023-11-01T19:46:10Z</time>
      </trkpt>
      <trkpt lat="47.1169" lon="-1.91541">
        <ele>12</ele>
        <time>2023-11-01T19:46:21Z</time>
      </trkpt>
      <trkpt lat="47.117" lon="-1.91567">
        <ele>12</ele>
        <time>2023-11-01T19:46:48Z</time>
      </trkpt>
      <trkpt lat="47.11711" lon="-1.9159">
        <ele>12</ele>
        <time>2023-11-01T19:47:14Z</time>
      </trkpt>
      <trkpt lat="47.11723" lon="-1.9162">
        <ele>12</ele>
        <time>2023-11-01T19:47:45Z</time>
      </trkpt>
      <trkpt lat="47.11731" lon="-1.91626">
        <ele>12</ele>
        <time>2023-11-01T19:47:57Z</time>
      </trkpt>
      <trkpt lat="47.1176" lon="-1.91634">
        <ele>13</ele>
        <time>2023-11-01T19:48:37Z</time>
      </trkpt>
      <trkpt lat="47.11777" lon="-1.91635">
        <ele>13</ele>
        <time>2023-11-01T19:48:59Z</time>
      </trkpt>
      <trkpt lat="47.11806" lon="-1.91622">
        <ele>13</ele>
        <time>2023-11-01T19:49:40Z</time>
      </trkpt>
      <trkpt lat="47.11857" lon="-1.91605">
        <ele>13</ele>
        <time>2023-11-01T19:50:50Z</time>
      </trkpt>
      <trkpt lat="47.11878" lon="-1.91589">
        <ele>14</ele>
        <time>2023-11-01T19:51:21Z</time>
      </trkpt>
      <trkpt lat="47.11945" lon="-1.91482">
        <ele>14</ele>
        <time>2023-11-01T19:53:33Z</time>
      </trkpt>
      <trkpt lat="47.11966" lon="-1.91456">
        <ele>14</ele>
        <time>2023-11-01T19:54:10Z</time>
      </trkpt>
      <trkpt lat="47.11994" lon="-1.91438">
        <ele>14</ele>
        <time>2023-11-01T19:54:51Z</time>
      </trkpt>
      <trkpt lat="47.12026" lon="-1.91422">
        <ele>13</ele>
        <time>2023-11-01T19:55:36Z</time>
      </trkpt>
      <trkpt lat="47.12048" lon="-1.91403">
        <ele>12</ele>
        <time>2023-11-01T19:56:10Z</time>
      </trkpt>
      <trkpt lat="47.12064" lon="-1.91387">
        <ele>12</ele>
        <time>2023-11-01T19:56:36Z</time>
      </trkpt>
      <trkpt lat="47.12101" lon="-1.91321">
        <ele>11</ele>
        <time>2023-11-01T19:57:53Z</time>
      </trkpt>
      <trkpt lat="47.12124" lon="-1.9128">
        <ele>10</ele>
        <time>2023-11-01T19:58:42Z</time>
      </trkpt>
      <trkpt lat="47.12146" lon="-1.91301">
        <ele>9</ele>
        <time>2023-11-01T19:59:17Z</time>
      </trkpt>
      <trkpt lat="47.12172" lon="-1.91335">
        <ele>9</ele>
        <time>2023-11-01T20:00:03Z</time>
      </trkpt>
      <trkpt lat="47.12222" lon="-1.91388">
        <ele>10</ele>
        <time>2023-11-01T20:01:25Z</time>
      </trkpt>
      <trkpt lat="47.12241" lon="-1.91385">
        <ele>9</ele>
        <time>2023-11-01T20:01:51Z</time>
      </trkpt>
      <trkpt lat="47.12263" lon="-1.91363">
        <ele>9</ele>
        <time>2023-11-01T20:02:26Z</time>
      </trkpt>
      <trkpt lat="47.12292" lon="-1.91314">
        <ele>8</ele>
        <time>2023-11-01T20:03:25Z</time>
      </trkpt>
      <trkpt lat="47.12307" lon="-1.91334">
        <ele>8</ele>
        <time>2023-11-01T20:03:52Z</time>
      </trkpt>
      <trkpt lat="47.12347" lon="-1.91374">
        <ele>8</ele>
        <time>2023-11-01T20:04:57Z</time>
      </trkpt>
      <trkpt lat="47.12378" lon="-1.91401">
        <ele>7</ele>
        <time>2023-11-01T20:05:45Z</time>
      </trkpt>
      <trkpt lat="47.12399" lon="-1.91424">
        <ele>7</ele>
        <time>2023-11-01T20:06:20Z</time>
      </trkpt>
      <trkpt lat="47.12403" lon="-1.91431">
        <ele>6</ele>
        <time>2023-11-01T20:06:28Z</time>
      </trkpt>
      <trkpt lat="47.12408" lon="-1.91435">
        <ele>6</ele>
        <time>2023-11-01T20:06:36Z</time>
      </trkpt>
      <trkpt lat="47.12417" lon="-1.91438">
        <ele>6</ele>
        <time>2023-11-01T20:06:48Z</time>
      </trkpt>
      <trkpt lat="47.12425" lon="-1.91439">
        <ele>6</ele>
        <time>2023-11-01T20:06:59Z</time>
      </trkpt>
      <trkpt lat="47.12433" lon="-1.91437">
        <ele>6</ele>
        <time>2023-11-01T20:07:10Z</time>
      </trkpt>
    </trkseg>
  </trk>
</gpx>